createdAt,value
2024-01-05T00:01:00.515Z,5.27
2024-01-05T00:06:03.976Z,5.47
2024-01-05T00:11:07.229Z,5.65
2024-01-05T00:16:18.920Z,5.83
2024-01-05T00:21:23.001Z,5.93
2024-01-05T00:26:26.743Z,6.00
2024-01-05T00:31:31.528Z,6.01
2024-01-05T00:36:34.991Z,6.02
2024-01-05T00:41:38.393Z,6.08
2024-01-05T00:46:44.034Z,6.11
2024-01-05T00:51:47.714Z,6.03
2024-01-05T00:56:51.043Z,6.03
2024-01-05T01:01:55.751Z,6.03
2024-01-05T01:06:59.042Z,6.11
2024-01-05T01:12:02.491Z,6.14
2024-01-05T01:17:07.384Z,6.20
2024-01-05T01:22:10.818Z,6.27
2024-01-05T01:27:14.421Z,6.35
2024-01-05T01:32:19.213Z,6.44
2024-01-05T01:37:22.578Z,6.47
2024-01-05T01:42:26.390Z,6.40
2024-01-05T01:47:31.397Z,6.21
2024-01-05T01:52:34.740Z,6.08
2024-01-05T01:57:39.013Z,5.94
2024-01-05T02:02:43.931Z,5.97
2024-01-05T02:07:47.276Z,5.91
2024-01-05T02:12:50.596Z,5.88
2024-01-05T02:17:55.750Z,5.81
2024-01-05T02:23:02.746Z,5.81
2024-01-05T02:28:07.880Z,5.81
2024-01-05T02:33:11.384Z,5.74
2024-01-05T02:38:14.681Z,5.78
2024-01-05T02:43:19.439Z,5.85
2024-01-05T02:48:23.032Z,5.84
2024-01-05T02:53:26.405Z,5.85
2024-01-05T02:58:31.064Z,5.88
2024-01-05T03:03:34.432Z,5.94
2024-01-05T03:08:37.800Z,6.03
2024-01-05T03:13:42.634Z,6.05
2024-01-05T03:18:46.183Z,5.97
2024-01-05T03:23:49.525Z,5.95
2024-01-05T03:28:54.541Z,5.98
2024-01-05T03:33:57.908Z,6.04
2024-01-05T03:39:02.959Z,6.08
2024-01-05T03:44:07.733Z,6.12
2024-01-05T03:49:11.042Z,6.14
2024-01-05T03:54:14.414Z,6.01
2024-01-05T03:59:19.514Z,6.08
2024-01-05T04:04:23.062Z,6.21
2024-01-05T04:09:26.461Z,6.23
2024-01-05T04:14:31.163Z,6.18
2024-01-05T04:19:34.757Z,6.27
2024-01-05T04:24:38.179Z,6.27
2024-01-05T04:29:42.943Z,6.16
2024-01-05T04:34:46.287Z,6.21
2024-01-05T04:39:52.026Z,6.27
2024-01-05T04:44:57.279Z,6.26
2024-01-05T04:50:00.807Z,6.29
2024-01-05T04:55:04.697Z,6.34
2024-01-05T05:00:10.628Z,6.28
2024-01-05T05:05:14.016Z,6.26
2024-01-05T05:10:17.481Z,6.22
2024-01-05T05:15:22.472Z,6.10
2024-01-05T05:20:26.030Z,6.06
2024-01-05T05:25:29.552Z,6.12
2024-01-05T05:30:34.853Z,6.14
2024-01-05T05:35:38.268Z,6.04
2024-01-05T05:40:41.602Z,6.03
2024-01-05T05:45:46.405Z,6.00
2024-01-05T05:50:49.804Z,5.97
2024-01-05T05:55:53.486Z,5.99
2024-01-05T06:00:58.317Z,5.95
2024-01-05T06:06:01.912Z,5.90
2024-01-05T06:11:05.474Z,6.01
2024-01-05T06:16:10.723Z,5.97
2024-01-05T06:21:14.061Z,6.02
2024-01-05T06:26:17.371Z,6.08
2024-01-05T06:31:24.390Z,6.19
2024-01-05T06:36:27.745Z,6.33
2024-01-05T06:41:31.129Z,6.41
2024-01-05T06:46:36.152Z,6.45
2024-01-05T06:51:39.789Z,6.45
2024-01-05T06:56:43.843Z,6.42
2024-01-05T07:01:49.496Z,6.43
2024-01-05T07:06:52.907Z,6.48
2024-01-05T07:11:56.387Z,6.53
2024-01-05T07:17:01.611Z,6.57
2024-01-05T07:22:05.355Z,6.59
2024-01-05T07:27:10.530Z,6.66
2024-01-05T07:32:15.757Z,6.68
2024-01-05T07:37:19.756Z,6.74
2024-01-05T07:42:23.124Z,6.81
2024-01-05T07:47:28.499Z,6.81
2024-01-05T07:52:31.860Z,6.82
2024-01-05T07:57:35.345Z,6.86
2024-01-05T08:02:40.681Z,6.82
2024-01-05T08:07:46.358Z,6.76
2024-01-05T08:12:49.866Z,6.77
2024-01-05T08:17:55.590Z,6.81
2024-01-05T08:22:59.307Z,6.88
2024-01-05T08:28:03.688Z,6.88
2024-01-05T08:33:08.995Z,6.86
2024-01-05T08:38:12.557Z,6.86
2024-01-05T08:43:15.848Z,6.89
2024-01-05T08:48:20.647Z,6.99
2024-01-05T08:53:24.161Z,7.08
2024-01-05T08:58:28.569Z,7.12
2024-01-05T09:03:33.680Z,7.12
2024-01-05T09:08:37.057Z,7.16
2024-01-05T09:13:40.497Z,7.21
2024-01-05T09:18:45.472Z,7.25
2024-01-05T09:23:48.764Z,7.28
2024-01-05T09:28:52.695Z,7.29
2024-01-05T09:33:58.166Z,7.29
2024-01-05T09:39:01.777Z,7.35
2024-01-05T09:44:06.079Z,7.39
2024-01-05T09:49:11.436Z,7.41
2024-01-05T09:54:15.235Z,7.48
2024-01-05T09:59:19.026Z,7.53
2024-01-05T10:04:24.020Z,7.57
2024-01-05T10:09:27.929Z,7.60
2024-01-05T10:14:31.398Z,7.63
2024-01-05T10:19:36.581Z,7.64
2024-01-05T10:24:40.264Z,7.60
2024-01-05T10:29:45.661Z,7.61
2024-01-05T10:34:51.877Z,7.61
2024-01-05T10:39:55.807Z,7.64
2024-01-05T10:45:01.369Z,7.64
2024-01-05T10:50:08.905Z,7.73
2024-01-05T10:55:12.949Z,7.78
2024-01-05T11:00:17.131Z,7.84
2024-01-05T11:05:22.580Z,7.91
2024-01-05T11:10:33.296Z,7.98
2024-01-05T11:15:50.354Z,7.97
2024-01-05T11:21:06.034Z,7.97
2024-01-05T11:26:10.081Z,8.03
2024-01-05T11:31:13.686Z,8.09
2024-01-05T11:36:57.405Z,8.18
2024-01-05T11:42:00.764Z,8.29
2024-01-05T11:47:04.478Z,8.36
2024-01-05T11:52:09.624Z,8.39
2024-01-05T11:57:12.984Z,8.36
2024-01-05T12:02:19.592Z,8.35
2024-01-05T12:07:27.222Z,8.33
2024-01-05T12:12:30.704Z,8.34
2024-01-05T12:17:34.376Z,8.32
2024-01-05T12:22:39.084Z,8.31
2024-01-05T12:27:42.846Z,8.30
2024-01-05T12:32:46.528Z,8.29
2024-01-05T12:37:54.824Z,8.34
2024-01-05T12:42:58.205Z,8.39
2024-01-05T12:48:12.153Z,8.41
2024-01-05T12:53:21.280Z,8.41
2024-01-05T12:58:25.225Z,8.41
2024-01-05T13:03:28.696Z,8.36
2024-01-05T13:08:36.469Z,8.26
2024-01-05T13:13:40.022Z,8.27
2024-01-05T13:18:43.982Z,8.25
2024-01-05T13:23:53.533Z,8.14
2024-01-05T13:28:57.164Z,8.15
2024-01-05T13:34:00.859Z,8.20
2024-01-05T13:39:07.422Z,8.27
2024-01-05T13:44:10.916Z,8.23
2024-01-05T13:49:14.221Z,8.23
2024-01-05T13:54:19.104Z,8.18
2024-01-05T13:59:22.440Z,8.12
2024-01-05T14:04:25.869Z,8.16
2024-01-05T14:09:30.761Z,8.16
2024-01-05T14:14:34.329Z,8.14
2024-01-05T14:19:37.746Z,8.04
2024-01-05T14:24:43.016Z,7.97
2024-01-05T14:29:46.366Z,7.97
2024-01-05T14:34:49.657Z,7.93
2024-01-05T14:39:54.323Z,7.91
2024-01-05T14:44:58.038Z,7.98
2024-01-05T14:50:01.346Z,7.95
2024-01-05T14:55:07.369Z,7.92
2024-01-05T15:00:12.279Z,7.93
2024-01-05T15:05:16.053Z,7.95
2024-01-05T15:10:20.920Z,7.91
2024-01-05T15:15:24.487Z,7.89
2024-01-05T15:20:28.315Z,7.89
2024-01-05T15:25:33.067Z,7.80
2024-01-05T15:30:36.834Z,7.76
2024-01-05T15:35:40.334Z,7.73
2024-01-05T15:40:45.150Z,7.72
2024-01-05T15:45:48.929Z,7.75
2024-01-05T15:50:52.768Z,7.70
2024-01-05T15:55:59.300Z,7.67
2024-01-05T16:01:03.063Z,7.60
2024-01-05T16:06:11.519Z,7.56
2024-01-05T16:11:16.638Z,7.55
2024-01-05T16:16:22.460Z,7.55
2024-01-05T16:21:28.115Z,7.50
2024-01-05T16:26:32.853Z,7.42
2024-01-05T16:31:36.235Z,7.47
2024-01-05T16:36:39.634Z,7.49
2024-01-05T16:41:44.295Z,7.49
2024-01-05T16:46:47.506Z,7.51
2024-01-05T16:51:51.231Z,7.53
2024-01-05T16:56:56.517Z,7.48
2024-01-05T17:01:59.980Z,7.41
2024-01-05T17:07:03.304Z,7.38
2024-01-05T17:12:08.623Z,7.32
2024-01-05T17:17:11.876Z,7.32
2024-01-05T17:22:15.370Z,7.33
2024-01-05T17:27:20.599Z,7.40
2024-01-05T17:32:24.003Z,7.42
2024-01-05T17:37:27.612Z,7.38
2024-01-05T17:42:32.322Z,7.39
2024-01-05T17:47:35.848Z,7.31
2024-01-05T17:52:39.166Z,7.24
2024-01-05T17:57:44.042Z,7.24
2024-01-05T18:02:47.605Z,7.28
2024-01-05T18:07:54.426Z,7.33
2024-01-05T18:12:59.251Z,7.34
2024-01-05T18:18:02.823Z,7.33
2024-01-05T18:23:06.591Z,7.31
2024-01-05T18:28:11.500Z,7.30
2024-01-05T18:33:15.118Z,7.27
2024-01-05T18:38:18.615Z,7.25
2024-01-05T18:43:24.098Z,7.22
2024-01-05T18:48:27.582Z,7.17
2024-01-05T18:53:31.021Z,7.17
2024-01-05T18:58:37.110Z,7.18
2024-01-05T19:03:40.552Z,7.09
2024-01-05T19:08:43.834Z,6.99
2024-01-05T19:13:48.593Z,6.95
2024-01-05T19:18:52.232Z,6.99
2024-01-05T19:23:55.700Z,7.03
2024-01-05T19:29:00.547Z,7.04
2024-01-05T19:34:04.025Z,7.07
2024-01-05T19:39:09.606Z,7.05
2024-01-05T19:44:17.350Z,7.01
2024-01-05T19:49:20.816Z,6.97
2024-01-05T19:54:24.151Z,6.96
2024-01-05T19:59:29.326Z,6.96
2024-01-05T20:04:32.677Z,6.93
2024-01-05T20:09:36.109Z,6.91
2024-01-05T20:14:41.641Z,6.91
2024-01-05T20:19:45.659Z,6.98
2024-01-05T20:24:49.070Z,7.05
2024-01-05T20:29:54.231Z,7.08
2024-01-05T20:34:57.518Z,7.11
2024-01-05T20:40:01.507Z,7.13
2024-01-05T20:45:08.827Z,7.16
2024-01-05T20:50:12.248Z,7.17
2024-01-05T20:55:15.854Z,7.16
2024-01-05T21:00:22.060Z,7.17
2024-01-05T21:05:26.435Z,7.13
2024-01-05T21:10:29.693Z,7.08
2024-01-05T21:15:34.628Z,7.04
2024-01-05T21:20:37.934Z,7.01
2024-01-05T21:25:41.139Z,7.01
2024-01-05T21:30:45.947Z,6.93
2024-01-05T21:35:50.547Z,6.91
2024-01-05T21:40:53.876Z,6.93
2024-01-05T21:45:59.783Z,6.92
2024-01-05T21:51:03.191Z,6.85
2024-01-05T21:56:09.219Z,6.85
2024-01-05T22:01:14.147Z,6.82
2024-01-05T22:06:17.597Z,6.75
2024-01-05T22:11:21.135Z,6.74
2024-01-05T22:16:26.166Z,6.78
2024-01-05T22:21:29.680Z,6.80
2024-01-05T22:26:35.299Z,6.75
2024-01-05T22:31:40.265Z,6.75
2024-01-05T22:36:44.499Z,6.74
2024-01-05T22:41:47.887Z,6.71
2024-01-05T22:46:52.623Z,6.65
2024-01-05T22:51:56.136Z,6.50
2024-01-05T22:56:59.420Z,6.56
2024-01-05T23:02:04.926Z,6.66
2024-01-05T23:07:08.616Z,6.77
2024-01-05T23:12:12.508Z,6.86
2024-01-05T23:17:17.184Z,6.90
2024-01-05T23:22:20.796Z,6.92
2024-01-05T23:27:24.569Z,6.94
2024-01-05T23:32:29.708Z,6.94
2024-01-05T23:37:33.186Z,6.97
2024-01-05T23:42:36.686Z,7.00
2024-01-05T23:47:41.805Z,7.04
2024-01-05T23:52:45.430Z,7.08
2024-01-05T23:57:48.813Z,7.08
